Time;durP1;ratioP1;P1;durP2;ratioP2;P2;SDS_P1;SDS_P2;PMS_P1;PMS_P2;Temp;Humidity;BMP_temperature;BMP_pressure;BME280_temperature;BME280_humidity;BME280_pressure;Samples;Min_cycle;Max_cycle;Signal;HPM_P1;HPM_P2
2021/03/28 00:00:19;;;;;;;45.80;21.80;;;;;;;2.44;80.67;97031.34;5049494;28;20048;-55
2021/03/28 00:02:53;;;;;;;33.72;19.80;;;;;;;2.46;80.01;97031.31;5064920;28;20108;-58
2021/03/28 00:05:21;;;;;;;29.63;15.43;;;;;;;2.45;80.53;97024.41;5055159;28;20039;-56
2021/03/28 00:07:48;;;;;;;25.77;15.75;;;;;;;2.41;80.69;97019.31;5050913;28;20377;-56
2021/03/28 00:10:37;;;;;;;24.25;14.50;;;;;;;2.38;80.62;97016.00;5045410;28;20408;-58
2021/03/28 00:13:25;;;;;;;20.30;13.25;;;;;;;2.39;80.63;97020.28;5045247;28;20072;-55
2021/03/28 00:15:57;;;;;;;19.70;11.90;;;;;;;2.45;81.15;97017.44;5009298;28;20032;-54
2021/03/28 00:18:33;;;;;;;16.92;10.75;;;;;;;2.39;80.66;97020.28;5042310;28;20138;-59
2021/03/28 00:21:21;;;;;;;15.13;10.43;;;;;;;2.30;81.29;97018.88;5038355;28;20029;-59
2021/03/28 00:23:58;;;;;;;16.75;12.35;;;;;;;2.24;80.63;97019.94;5044705;28;20042;-58
2021/03/28 00:26:30;;;;;;;17.55;12.07;;;;;;;2.26;80.53;97022.50;5036241;28;20112;-58
2021/03/28 00:29:23;;;;;;;16.90;12.05;;;;;;;2.15;81.57;97021.13;5042908;28;20142;-59
2021/03/28 00:31:58;;;;;;;17.02;12.48;;;;;;;2.12;81.47;97015.22;5040969;28;20033;-58
2021/03/28 00:34:31;;;;;;;23.58;12.68;;;;;;;2.11;82.36;97018.72;5040058;28;20038;-59
2021/03/28 00:37:08;;;;;;;14.77;9.80;;;;;;;2.10;82.17;97011.81;5042371;28;20595;-58
2021/03/28 00:39:54;;;;;;;11.80;9.27;;;;;;;2.06;82.68;97015.44;5041092;28;20036;-59
2021/03/28 00:42:19;;;;;;;;;;;;;;;2.08;82.14;97016.22;5046762;28;20038;-58
2021/03/28 00:45:21;;;;;;;11.45;8.18;;;;;;;2.12;82.20;97017.84;5045800;28;19928;-58
2021/03/28 00:48:12;;;;;;;12.68;9.13;;;;;;;2.10;81.99;97012.69;5041190;28;20103;-59
2021/03/28 00:51:11;;;;;;;15.02;10.73;;;;;;;2.11;81.88;97010.94;5041206;28;20045;-60
2021/03/28 00:53:56;;;;;;;14.70;10.20;;;;;;;2.09;81.86;97005.78;5041984;28;20032;-58
2021/03/28 00:56:48;;;;;;;18.33;10.05;;;;;;;2.09;82.29;97011.00;5043609;28;20496;-59
2021/03/28 00:59:34;;;;;;;12.85;9.07;;;;;;;2.06;81.57;97002.44;5047874;28;20030;-59
2021/03/28 01:02:19;;;;;;;11.98;9.25;;;;;;;1.98;81.93;97005.31;5047450;28;20099;-59
2021/03/28 01:05:22;;;;;;;10.80;8.83;;;;;;;2.02;81.85;97003.47;5044584;28;20086;-57
2021/03/28 01:08:07;;;;;;;11.95;8.98;;;;;;;2.02;81.92;97008.66;5044770;28;20029;-59
2021/03/28 01:10:48;;;;;;;11.77;8.68;;;;;;;1.95;81.95;97021.88;5051042;28;20075;-58
2021/03/28 01:13:44;;;;;;;11.48;8.70;;;;;;;1.88;81.91;97019.56;5048575;28;20025;-58
2021/03/28 01:16:39;;;;;;;;;;;;;;;1.83;81.72;97017.13;5050988;28;20040;-59
2021/03/28 01:19:42;;;;;;;9.73;7.50;;;;;;;1.81;82.40;97012.00;5050323;28;20008;-58
2021/03/28 01:22:29;;;;;;;10.20;7.47;;;;;;;1.80;82.45;97012.03;5048466;28;20029;-59
2021/03/28 01:25:05;;;;;;;9.32;7.43;;;;;;;1.69;82.68;97008.09;5051388;28;20025;-59
2021/03/28 01:27:45;;;;;;;8.60;7.35;;;;;;;1.69;82.50;97015.88;5047862;28;20063;-59
2021/03/28 01:30:18;;;;;;;9.77;6.93;;;;;;;1.70;82.68;97009.78;5047340;28;20055;-59
2021/03/28 01:33:04;;;;;;;7.70;6.90;;;;;;;1.75;82.94;97008.78;5049945;28;20029;-59
2021/03/28 01:35:55;;;;;;;9.23;6.75;;;;;;;1.76;82.61;97013.06;5048026;28;20022;-58
2021/03/28 01:38:21;;;;;;;13.77;7.18;;;;;;;1.79;82.01;97000.81;5055230;28;20027;-59
2021/03/28 01:40:56;;;;;;;7.28;6.63;;;;;;;1.75;82.38;96994.03;5052553;28;20092;-58
2021/03/28 01:43:29;;;;;;;8.25;7.07;;;;;;;1.68;82.33;96996.03;5047876;28;20111;-59
2021/03/28 01:46:18;;;;;;;10.30;6.53;;;;;;;1.69;82.17;96995.13;5052645;28;20036;-58
2021/03/28 01:48:50;;;;;;;11.65;6.60;;;;;;;1.64;82.73;96993.59;5044564;28;20408;-58
2021/03/28 01:51:34;;;;;;;7.72;6.50;;;;;;;1.63;82.67;96992.72;5051017;28;20036;-59
2021/03/28 01:54:24;;;;;;;12.80;8.50;;;;;;;1.63;82.72;96987.53;5050410;28;20140;-59
2021/03/28 01:57:08;;;;;;;9.40;7.15;;;;;;;1.56;83.41;96988.66;5054029;28;20499;-59
2021/03/28 01:59:33;;;;;;;8.13;7.18;;;;;;;1.53;83.33;96980.97;5049796;28;20628;-58
2021/03/28 02:02:10;;;;;;;7.22;6.53;;;;;;;1.48;83.02;96983.72;5049074;28;20033;-58
2021/03/28 02:04:45;;;;;;;7.38;6.60;;;;;;;1.52;82.80;96989.66;5048749;28;20551;-59
2021/03/28 02:07:30;;;;;;;10.80;9.57;;;;;;;1.56;82.51;96986.06;5054605;28;20041;-59
2021/03/28 02:10:21;;;;;;;14.68;9.73;;;;;;;1.50;83.46;96987.13;5040861;28;20502;-58
2021/03/28 02:13:10;;;;;;;9.52;8.15;;;;;;;1.43;83.71;96986.47;5054182;28;20066;-58
2021/03/28 02:16:03;;;;;;;8.80;7.97;;;;;;;1.39;83.47;96984.06;5052003;28;20044;-59
2021/03/28 02:18:47;;;;;;;8.90;7.55;;;;;;;1.43;82.86;96991.66;5053697;28;20024;-58
2021/03/28 02:21:53;;;;;;;9.63;8.00;;;;;;;1.42;83.13;96989.97;5052176;28;20400;-59
2021/03/28 02:24:30;;;;;;;8.73;7.55;;;;;;;1.40;83.09;96999.56;5051270;28;20037;-58
2021/03/28 02:27:07;;;;;;;9.05;7.60;;;;;;;1.32;82.70;96992.94;5051669;28;20068;-58
2021/03/28 02:30:01;;;;;;;10.85;8.27;;;;;;;1.29;83.15;96994.75;5053145;28;20022;-58
2021/03/28 02:32:34;;;;;;;7.57;6.88;;;;;;;1.27;83.23;96993.13;5035058;28;20037;-59
2021/03/28 02:35:16;;;;;;;11.40;7.07;;;;;;;1.25;84.04;96992.34;5050239;28;20514;-58
2021/03/28 02:38:06;;;;;;;8.40;6.35;;;;;;;1.27;83.64;96990.53;5050566;28;20416;-58
2021/03/28 02:40:46;;;;;;;7.47;6.50;;;;;;;1.25;83.47;96984.53;5052643;28;20477;-58
2021/03/28 02:43:31;;;;;;;7.40;6.68;;;;;;;1.28;83.91;96987.03;5052699;28;20076;-59
2021/03/28 02:46:33;;;;;;;7.13;6.53;;;;;;;1.24;83.45;96995.81;5053432;28;20045;-58
2021/03/28 02:49:11;;;;;;;8.18;6.80;;;;;;;1.23;83.51;96989.78;5051192;28;20043;-58
2021/03/28 02:52:03;;;;;;;9.88;7.65;;;;;;;1.16;83.52;96985.72;5055146;28;20056;-58
2021/03/28 02:55:07;;;;;;;9.07;6.30;;;;;;;1.18;83.98;96990.81;5056786;28;20029;-58
2021/03/28 02:58:08;;;;;;;7.13;6.53;;;;;;;1.10;83.97;96986.75;5050450;28;20044;-58
2021/03/28 03:01:19;;;;;;;9.10;8.20;;;;;;;1.07;84.15;96984.25;5054750;28;20024;-58
2021/03/28 03:04:13;;;;;;;14.88;13.43;;;;;;;1.13;84.16;96981.47;5055080;28;20396;-59
2021/03/28 03:06:53;;;;;;;11.68;10.63;;;;;;;1.16;83.63;96984.84;5052202;28;20065;-58
2021/03/28 03:09:59;;;;;;;10.90;9.90;;;;;;;1.10;83.68;96989.34;5044072;28;20021;-58
2021/03/28 03:12:39;;;;;;;10.37;9.37;;;;;;;1.02;83.87;96991.34;5055101;28;20017;-58
2021/03/28 03:15:36;;;;;;;10.60;9.55;;;;;;;1.03;83.92;96992.19;5052579;28;20029;-58
2021/03/28 03:18:29;;;;;;;12.98;9.13;;;;;;;0.98;84.19;96997.53;5049575;28;20025;-59
2021/03/28 03:21:12;;;;;;;10.55;8.65;;;;;;;0.94;84.78;96996.81;5052353;28;20080;-58
2021/03/28 03:24:08;;;;;;;8.43;7.65;;;;;;;0.91;84.35;96999.50;5054598;28;20060;-58
2021/03/28 03:26:52;;;;;;;8.05;7.38;;;;;;;0.95;84.37;97000.22;5049249;28;20029;-58
2021/03/28 03:29:41;;;;;;;9.10;8.07;;;;;;;0.94;84.11;97009.75;5052296;28;20425;-58
2021/03/28 03:32:19;;;;;;;8.80;7.85;;;;;;;0.94;83.75;97014.09;5050731;28;20020;-57
2021/03/28 03:34:58;;;;;;;8.35;7.35;;;;;;;0.87;84.61;97007.41;5052687;28;20079;-57
2021/03/28 03:37:23;;;;;;;7.85;7.25;;;;;;;0.83;84.87;97010.13;5049444;28;20439;-57
2021/03/28 03:40:07;;;;;;;7.35;6.60;;;;;;;0.84;84.88;97011.81;5054950;28;20059;-60
2021/03/28 03:43:06;;;;;;;11.38;7.00;;;;;;;0.81;84.82;97009.31;5051609;28;20048;-58
2021/03/28 03:45:57;;;;;;;7.70;6.50;;;;;;;0.79;84.90;97005.94;5053085;28;20024;-57
2021/03/28 03:48:46;;;;;;;8.32;7.03;;;;;;;0.82;84.00;97015.34;5045548;28;20143;-58
2021/03/28 03:51:43;;;;;;;9.52;6.65;;;;;;;0.77;84.69;97018.06;5052528;28;20374;-58
2021/03/28 03:54:30;;;;;;;8.27;6.95;;;;;;;0.79;84.75;97015.44;5049626;28;20025;-58
2021/03/28 03:57:18;;;;;;;6.75;5.93;;;;;;;0.75;83.89;97014.69;5048240;28;20028;-59
2021/03/28 04:00:05;;;;;;;7.97;7.07;;;;;;;0.77;84.15;97020.66;5052971;28;20028;-59
2021/03/28 04:02:44;;;;;;;11.55;6.20;;;;;;;0.76;84.77;97033.69;5050062;28;20036;-58
2021/03/28 04:05:53;;;;;;;6.90;5.88;;;;;;;0.70;84.34;97021.75;5053106;28;20611;-59
2021/03/28 04:08:32;;;;;;;6.70;5.97;;;;;;;0.65;84.85;97023.66;5052586;28;20048;-58
2021/03/28 04:11:21;;;;;;;11.27;7.03;;;;;;;0.60;84.32;97023.78;5049452;28;20018;-58
2021/03/28 04:14:08;;;;;;;7.53;6.82;;;;;;;0.59;84.67;97027.28;5052648;28;20035;-57
2021/03/28 04:17:08;;;;;;;7.13;6.38;;;;;;;0.57;84.88;97022.16;5051009;28;20033;-59
2021/03/28 04:20:04;;;;;;;8.73;7.85;;;;;;;0.53;85.40;97023.13;5050677;28;20037;-57
2021/03/28 04:23:08;;;;;;;9.23;7.35;;;;;;;0.48;85.37;97032.78;5050221;28;20025;-59
2021/03/28 04:26:07;;;;;;;7.70;6.90;;;;;;;0.49;85.07;97033.66;5053103;28;20029;-59
2021/03/28 04:29:07;;;;;;;8.43;7.15;;;;;;;0.49;85.41;97038.84;5046760;28;20029;-59
2021/03/28 04:31:47;;;;;;;9.95;7.43;;;;;;;0.47;85.28;97038.88;5051658;28;20469;-58
2021/03/28 04:34:16;;;;;;;9.57;6.95;;;;;;;0.51;84.82;97043.06;5073260;28;20039;-59
2021/03/28 04:36:41;;;;;;;8.15;7.35;;;;;;;0.46;84.74;97039.75;5052505;28;20033;-58
2021/03/28 04:39:29;;;;;;;8.43;6.90;;;;;;;0.45;85.25;97043.25;5048882;28;20075;-60
2021/03/28 04:42:38;;;;;;;8.98;6.28;;;;;;;0.38;84.87;97045.19;5052352;28;20033;-60
2021/03/28 04:45:34;;;;;;;9.90;6.10;;;;;;;0.39;85.43;97043.44;5051656;28;20021;-58
2021/03/28 04:48:37;;;;;;;8.48;6.50;;;;;;;0.39;84.88;97046.88;5051361;28;20036;-59
2021/03/28 04:51:15;;;;;;;6.35;5.75;;;;;;;0.36;84.41;97046.97;5048161;28;20033;-58
2021/03/28 04:54:01;;;;;;;8.15;6.07;;;;;;;0.33;84.64;97054.84;5048868;28;20040;-59
2021/03/28 04:56:54;;;;;;;6.68;5.70;;;;;;;0.36;85.09;97053.91;5009567;28;20128;-58
2021/03/28 04:59:35;;;;;;;8.77;6.00;;;;;;;0.30;85.15;97059.25;5053754;28;20466;-60
2021/03/28 05:02:13;;;;;;;8.65;5.80;;;;;;;0.26;85.58;97064.53;5043838;28;20439;-58
2021/03/28 05:05:06;;;;;;;6.00;5.20;;;;;;;0.24;85.42;97060.28;5051165;28;20104;-58
2021/03/28 05:07:41;;;;;;;7.07;6.03;;;;;;;0.25;85.29;97068.00;5051457;28;20103;-58
2021/03/28 05:10:16;;;;;;;6.75;5.32;;;;;;;0.36;85.17;97066.88;5051895;28;20042;-59
2021/03/28 05:13:19;;;;;;;6.43;5.75;;;;;;;0.38;85.02;97065.06;5063631;28;20041;-59
2021/03/28 05:16:12;;;;;;;7.88;5.07;;;;;;;0.32;85.51;97073.00;5049341;28;20595;-59
2021/03/28 05:19:00;;;;;;;9.77;5.95;;;;;;;0.33;85.37;97066.94;5053592;28;20017;-58
2021/03/28 05:21:51;;;;;;;6.35;5.30;;;;;;;0.28;86.12;97078.28;5047318;28;20108;-59
2021/03/28 05:24:41;;;;;;;5.95;5.28;;;;;;;0.27;85.54;97086.13;5052649;28;20017;-59
2021/03/28 05:27:15;;;;;;;8.70;6.53;;;;;;;0.31;85.47;97082.53;5054033;28;20065;-59
2021/03/28 05:29:44;;;;;;;7.40;6.65;;;;;;;0.28;85.26;97086.03;5053228;28;20466;-59
2021/03/28 05:32:33;;;;;;;8.93;6.10;;;;;;;0.25;85.92;97087.91;5054183;28;20508;-59
2021/03/28 05:35:26;;;;;;;5.90;5.40;;;;;;;0.25;86.01;97091.31;5043316;28;20063;-59
2021/03/28 05:38:13;;;;;;;8.38;5.93;;;;;;;0.27;85.81;97091.28;5050675;28;20029;-59
2021/03/28 05:41:03;;;;;;;7.55;5.40;;;;;;;0.35;86.14;97098.84;5049178;28;20029;-59
2021/03/28 05:43:32;;;;;;;9.13;6.10;;;;;;;0.38;85.82;97097.00;5044602;28;20088;-59
2021/03/28 05:46:35;;;;;;;11.80;6.60;;;;;;;0.42;85.93;97100.34;5053188;28;20484;-59
2021/03/28 05:49:19;;;;;;;29.48;14.73;;;;;;;0.39;86.04;97108.22;5056042;28;20060;-58
2021/03/28 05:51:56;;;;;;;41.78;19.80;;;;;;;0.43;85.86;97113.25;5054086;28;20036;-58
2021/03/28 05:54:59;;;;;;;40.30;21.02;;;;;;;0.42;86.14;97105.53;5055381;28;20028;-58
2021/03/28 05:57:46;;;;;;;38.60;19.55;;;;;;;0.41;86.44;97109.03;5053096;28;20099;-58
2021/03/28 06:00:28;;;;;;;36.70;19.73;;;;;;;0.39;86.30;97116.00;5054300;28;20389;-59
2021/03/28 06:03:09;;;;;;;38.40;21.13;;;;;;;0.45;85.82;97121.00;5050905;28;20021;-58
2021/03/28 06:06:02;;;;;;;29.65;18.00;;;;;;;0.47;86.41;97123.56;5056505;28;20483;-59
2021/03/28 06:08:46;;;;;;;41.47;24.95;;;;;;;0.51;86.48;97126.00;5056770;28;20798;-58
2021/03/28 06:11:26;;;;;;;37.28;21.08;;;;;;;0.51;85.85;97138.94;5054820;28;20029;-58
2021/03/28 06:14:25;;;;;;;36.70;17.30;;;;;;;0.52;86.59;97148.41;5057087;28;20025;-59
2021/03/28 06:17:01;;;;;;;25.05;16.05;;;;;;;0.55;86.04;97155.28;5056477;28;20477;-58
2021/03/28 06:19:45;;;;;;;34.88;19.05;;;;;;;0.63;86.63;97152.47;5050064;28;20114;-59
2021/03/28 06:22:36;;;;;;;23.02;15.52;;;;;;;0.64;86.59;97152.41;5056578;28;20098;-59
2021/03/28 06:25:43;;;;;;;25.42;14.27;;;;;;;0.62;86.74;97154.19;5052445;28;20032;-59
2021/03/28 06:28:26;;;;;;;;;;;;;;;0.70;87.21;97156.56;5056041;28;20033;-59
2021/03/28 06:31:17;;;;;;;16.63;10.30;;;;;;;0.75;86.80;97154.69;5055352;28;19912;-59
2021/03/28 06:34:04;;;;;;;21.85;11.00;;;;;;;0.81;86.72;97156.25;5047973;28;20043;-58
2021/03/28 06:36:44;;;;;;;14.95;9.80;;;;;;;0.89;86.86;97156.88;5048693;28;20039;-59
2021/03/28 06:39:28;;;;;;;16.38;9.07;;;;;;;0.92;86.74;97150.75;5054760;28;20025;-59
2021/03/28 06:42:12;;;;;;;13.15;9.25;;;;;;;0.90;86.73;97155.13;5052652;28;20057;-59
2021/03/28 06:45:10;;;;;;;11.73;8.00;;;;;;;0.89;86.58;97156.03;5054704;28;20532;-59
2021/03/28 06:48:05;;;;;;;9.60;8.23;;;;;;;0.93;86.83;97162.81;5037641;28;20063;-59
2021/03/28 06:50:49;;;;;;;11.77;7.47;;;;;;;1.04;86.61;97163.34;5051022;28;20029;-59
2021/03/28 06:53:40;;;;;;;8.13;6.82;;;;;;;1.13;86.69;97163.06;5054578;28;20480;-59
2021/03/28 06:56:37;;;;;;;10.85;7.28;;;;;;;1.21;86.00;97172.34;5044600;28;20033;-59
2021/03/28 06:59:12;;;;;;;12.32;6.70;;;;;;;1.24;85.75;97172.25;5056437;28;20511;-59
2021/03/28 07:02:02;;;;;;;12.20;7.07;;;;;;;1.29;85.44;97171.19;5054959;28;20142;-59
2021/03/28 07:05:02;;;;;;;11.73;7.40;;;;;;;1.37;85.23;97183.94;5053841;28;20434;-59
2021/03/28 07:07:56;;;;;;;9.88;8.95;;;;;;;1.39;85.55;97187.34;5054379;28;20414;-59
2021/03/28 07:10:43;;;;;;;11.15;9.68;;;;;;;1.99;85.78;97192.31;5047988;28;20025;-59
2021/03/28 07:13:23;;;;;;;12.15;10.68;;;;;;;3.48;83.49;97187.81;5053604;28;20021;-59
2021/03/28 07:16:13;;;;;;;13.82;11.25;;;;;;;4.86;77.40;97188.03;5057679;28;20086;-59
2021/03/28 07:18:47;;;;;;;13.02;10.23;;;;;;;6.05;75.71;97187.72;5054594;28;20428;-60
2021/03/28 07:21:19;;;;;;;7.43;6.15;;;;;;;7.00;72.54;97178.47;5052726;28;20036;-60
2021/03/28 07:24:16;;;;;;;8.20;6.00;;;;;;;7.71;64.97;97182.41;5049236;28;20501;-59
2021/03/28 07:27:30;;;;;;;14.00;12.70;;;;;;;8.48;62.73;97170.13;5052287;28;20053;-59
2021/03/28 07:30:01;;;;;;;6.95;5.75;;;;;;;8.80;59.24;97176.06;5016131;28;20561;-60
2021/03/28 07:33:04;;;;;;;6.47;4.35;;;;;;;9.10;58.81;97175.09;5049780;28;20029;-60
2021/03/28 07:35:48;;;;;;;5.65;4.35;;;;;;;9.71;57.48;97171.25;5054974;28;20807;-60
2021/03/28 07:38:19;;;;;;;6.43;4.53;;;;;;;10.02;54.39;97172.72;5052182;28;20075;-59
2021/03/28 07:41:09;;;;;;;8.75;4.38;;;;;;;10.12;55.07;97177.38;5054973;28;20460;-60
2021/03/28 07:44:11;;;;;;;4.70;4.20;;;;;;;10.31;55.02;97175.19;5048807;28;20042;-60
2021/03/28 07:46:42;;;;;;;5.07;3.67;;;;;;;10.38;53.62;97174.78;5048302;28;20816;-60
2021/03/28 07:49:26;;;;;;;3.80;3.38;;;;;;;10.34;53.92;97168.03;5052836;28;20036;-59
2021/03/28 07:52:10;;;;;;;3.47;3.25;;;;;;;10.83;53.34;97163.81;5050021;28;20108;-60
2021/03/28 07:54:40;;;;;;;4.82;3.78;;;;;;;11.08;52.20;97167.41;5050964;28;20029;-60
2021/03/28 07:57:19;;;;;;;8.10;3.17;;;;;;;11.21;50.79;97151.53;5052879;28;20055;-60
2021/03/28 08:00:06;;;;;;;7.78;3.28;;;;;;;11.74;50.47;97174.97;5048288;28;20910;-60
2021/03/28 08:03:02;;;;;;;4.40;3.40;;;;;;;12.18;48.98;97170.00;5049415;28;20035;-60
2021/03/28 08:06:08;;;;;;;6.82;2.95;;;;;;;11.84;48.03;97181.25;5049961;28;20098;-60
2021/03/28 08:09:19;;;;;;;8.27;3.53;;;;;;;11.72;49.98;97185.63;5043301;28;20052;-60
2021/03/28 08:11:53;;;;;;;4.18;2.72;;;;;;;12.14;48.30;97187.03;5053685;28;20124;-60
2021/03/28 08:14:21;;;;;;;6.70;3.17;;;;;;;12.50;46.42;97182.56;5052106;28;20033;-60
2021/03/28 08:17:02;;;;;;;5.63;3.25;;;;;;;11.97;46.32;97190.91;5050454;28;20044;-60
2021/03/28 08:20:06;;;;;;;3.70;2.90;;;;;;;12.29;46.00;97177.09;5055371;28;20032;-60
2021/03/28 08:22:50;;;;;;;3.20;2.75;;;;;;;11.97;46.40;97178.53;5061479;28;20409;-60
2021/03/28 08:25:40;;;;;;;4.10;3.13;;;;;;;12.32;46.56;97175.09;5053928;28;20029;-60
2021/03/28 08:28:27;;;;;;;4.25;3.33;;;;;;;12.24;47.70;97163.41;5046500;28;20025;-59
2021/03/28 08:30:55;;;;;;;3.47;3.13;;;;;;;12.26;47.10;97175.53;5049757;28;20064;-60
2021/03/28 08:33:57;;;;;;;5.68;3.17;;;;;;;12.68;44.00;97161.81;5052483;28;20033;-60
2021/03/28 08:36:47;;;;;;;4.20;2.80;;;;;;;12.83;43.43;97162.41;5067260;28;20508;-59
2021/03/28 08:39:31;;;;;;;5.05;2.88;;;;;;;12.56;45.14;97154.81;5051481;28;20021;-59
2021/03/28 08:42:12;;;;;;;7.50;3.10;;;;;;;12.37;44.39;97158.88;5048778;28;20028;-58
2021/03/28 08:44:43;;;;;;;3.78;3.30;;;;;;;12.88;42.95;97157.59;5053065;28;20033;-58
2021/03/28 08:47:33;;;;;;;3.10;2.80;;;;;;;13.42;41.41;97157.78;5049321;28;20045;-59
2021/03/28 08:50:44;;;;;;;3.40;2.70;;;;;;;13.00;41.81;97160.25;5052717;28;20037;-59
2021/03/28 08:53:46;;;;;;;6.18;2.90;;;;;;;12.64;43.02;97162.16;5033567;28;20037;-59
2021/03/28 08:56:40;;;;;;;3.92;2.58;;;;;;;13.14;41.29;97170.56;5053371;28;20668;-59
2021/03/28 08:59:08;;;;;;;5.28;3.60;;;;;;;13.63;40.54;97165.00;5051770;28;20047;-58
2021/03/28 09:02:06;;;;;;;4.40;2.90;;;;;;;13.74;39.82;97170.22;5051958;28;20029;-58
2021/03/28 09:04:50;;;;;;;4.90;2.75;;;;;;;14.29;42.39;97163.13;5046366;28;20043;-59
2021/03/28 09:07:27;;;;;;;4.55;2.60;;;;;;;14.87;39.93;97165.28;5050063;28;20029;-59
2021/03/28 09:10:07;;;;;;;3.67;2.72;;;;;;;15.11;39.66;97163.28;5043326;28;20036;-58
2021/03/28 09:13:14;;;;;;;3.28;2.38;;;;;;;15.56;37.71;97167.31;5050787;28;20033;-59
2021/03/28 09:15:49;;;;;;;4.15;2.70;;;;;;;15.68;38.04;97160.91;5049240;28;20112;-59
2021/03/28 09:18:25;;;;;;;8.35;2.65;;;;;;;15.92;36.37;97166.84;5054716;28;20036;-58
2021/03/28 09:21:29;;;;;;;3.40;2.30;;;;;;;15.54;37.91;97162.16;5050729;28;20045;-58
2021/03/28 09:23:57;;;;;;;4.78;2.60;;;;;;;15.96;37.04;97165.56;5036859;28;20460;-59
2021/03/28 09:26:35;;;;;;;3.10;2.65;;;;;;;15.99;36.01;97160.81;5053487;28;20025;-59
2021/03/28 09:29:39;;;;;;;6.55;2.58;;;;;;;16.38;35.91;97165.28;5051745;28;20033;-58
2021/03/28 09:32:42;;;;;;;5.00;2.72;;;;;;;16.78;35.37;97166.00;5042615;28;20036;-58
2021/03/28 09:35:35;;;;;;;3.35;2.28;;;;;;;16.76;34.95;97168.78;5049607;28;20029;-59
2021/03/28 09:38:35;;;;;;;6.90;2.53;;;;;;;16.93;35.02;97171.69;5047770;28;20119;-61
2021/03/28 09:41:17;;;;;;;3.13;2.60;;;;;;;17.08;34.01;97182.72;5037032;28;20071;-59
2021/03/28 09:44:05;;;;;;;3.42;2.05;;;;;;;16.97;32.86;97183.72;5046899;28;20789;-61
2021/03/28 09:46:48;;;;;;;4.50;2.60;;;;;;;16.97;33.26;97182.88;5046710;28;20511;-61
2021/03/28 09:49:39;;;;;;;5.05;3.38;;;;;;;16.96;33.56;97189.19;5050612;28;20039;-62
2021/03/28 09:52:10;;;;;;;4.85;3.30;;;;;;;16.46;36.18;97193.75;5066440;28;20024;-59
2021/03/28 09:55:02;;;;;;;6.60;3.47;;;;;;;16.39;37.06;97188.22;5054701;28;20437;-59
2021/03/28 09:57:49;;;;;;;4.28;3.47;;;;;;;16.74;37.44;97192.03;5045699;28;20446;-58
2021/03/28 10:00:33;;;;;;;7.70;4.25;;;;;;;16.40;35.67;97187.22;5050968;28;20508;-58
2021/03/28 10:03:22;;;;;;;5.18;3.50;;;;;;;16.13;37.31;97182.63;5049045;28;20075;-60
2021/03/28 10:05:48;;;;;;;4.65;3.13;;;;;;;16.59;36.25;97172.22;5049105;28;20102;-62
2021/03/28 10:08:21;;;;;;;4.20;2.85;;;;;;;16.60;36.22;97174.72;5051213;28;20025;-62
2021/03/28 10:11:09;;;;;;;5.85;3.47;;;;;;;16.55;37.13;97171.66;5052389;28;20029;-59
2021/03/28 10:14:11;;;;;;;7.95;3.20;;;;;;;16.81;35.13;97164.88;5052026;28;20060;-59
2021/03/28 10:16:52;;;;;;;5.75;3.15;;;;;;;17.21;34.74;97168.25;5048800;28;20473;-60
2021/03/28 10:19:38;;;;;;;4.50;2.80;;;;;;;17.67;34.26;97160.25;5055407;28;20421;-60
2021/03/28 10:22:15;;;;;;;7.38;3.40;;;;;;;18.15;33.12;97160.91;5051339;28;20036;-58
2021/03/28 10:24:47;;;;;;;4.70;2.92;;;;;;;18.04;31.87;97162.84;5047691;28;20442;-59
2021/03/28 10:27:49;;;;;;;5.00;3.20;;;;;;;17.36;35.22;97158.78;5049646;28;20028;-59
2021/03/28 10:30:29;;;;;;;4.95;3.13;;;;;;;18.09;33.88;97149.03;5050931;28;20042;-59
2021/03/28 10:33:23;;;;;;;8.40;5.10;;;;;;;18.36;33.09;97152.59;5051979;28;20028;-60
2021/03/28 10:36:19;;;;;;;4.53;3.20;;;;;;;18.42;32.82;97143.97;5049539;28;20072;-60
2021/03/28 10:38:54;;;;;;;3.25;2.80;;;;;;;18.65;31.55;97148.78;5047741;28;20087;-59
2021/03/28 10:41:36;;;;;;;4.53;3.00;;;;;;;17.91;33.10;97149.00;5054075;28;20504;-59
2021/03/28 10:44:38;;;;;;;3.45;3.00;;;;;;;17.60;34.36;97133.41;5046443;28;20045;-58
2021/03/28 10:47:54;;;;;;;4.03;2.72;;;;;;;17.74;33.00;97140.03;5052364;28;20109;-59
2021/03/28 10:50:47;;;;;;;6.18;3.40;;;;;;;17.92;32.55;97132.03;5051546;28;20059;-59
2021/03/28 10:53:37;;;;;;;4.65;3.58;;;;;;;18.69;30.47;97128.78;5054384;28;20040;-59
2021/03/28 10:56:38;;;;;;;4.43;2.70;;;;;;;18.44;30.65;97135.78;5054612;28;20032;-59
2021/03/28 10:59:22;;;;;;;7.18;3.20;;;;;;;18.75;29.71;97130.00;5047189;28;20029;-59
2021/03/28 11:02:25;;;;;;;6.35;3.40;;;;;;;18.09;31.99;97132.22;5049691;28;20400;-60
2021/03/28 11:05:15;;;;;;;24.85;18.00;;;;;;;18.41;32.39;97131.63;5052011;28;20029;-58
2021/03/28 11:07:58;;;;;;;10.07;6.93;;;;;;;17.97;34.92;97131.59;5047791;28;20037;-60
2021/03/28 11:10:41;;;;;;;6.80;5.53;;;;;;;18.11;34.42;97132.91;5056813;28;20033;-59
2021/03/28 11:13:25;;;;;;;5.22;3.00;;;;;;;18.24;34.54;97130.69;5051649;28;20055;-59
2021/03/28 11:16:19;;;;;;;3.88;3.28;;;;;;;18.10;32.40;97129.38;5053267;28;20481;-55
2021/03/28 11:19:15;;;;;;;4.13;3.40;;;;;;;18.32;31.83;97121.88;5054412;28;20439;-56
2021/03/28 11:22:04;;;;;;;3.72;2.60;;;;;;;17.89;33.94;97113.69;5050941;28;20036;-53
2021/03/28 11:24:52;;;;;;;7.18;3.28;;;;;;;18.10;32.12;97118.72;5050127;28;20033;-52
2021/03/28 11:27:36;;;;;;;5.10;3.17;;;;;;;18.04;33.01;97114.03;5048683;28;20375;-52
2021/03/28 11:30:31;;;;;;;5.35;3.47;;;;;;;18.44;34.84;97104.66;5054208;28;20056;-55
2021/03/28 11:33:16;;;;;;;5.50;3.30;;;;;;;18.49;34.49;97093.53;5050749;28;20044;-55
2021/03/28 11:36:05;;;;;;;3.70;3.15;;;;;;;18.65;31.41;97103.44;5047082;28;20037;-51
2021/03/28 11:38:35;;;;;;;4.65;3.40;;;;;;;19.50;30.33;97088.44;5053814;28;20036;-55
2021/03/28 11:41:07;;;;;;;3.90;2.97;;;;;;;19.39;29.91;97086.06;5052592;28;20433;-55
2021/03/28 11:43:44;;;;;;;4.07;3.08;;;;;;;19.40;31.05;97088.56;5047026;28;20045;-51
2021/03/28 11:46:26;;;;;;;4.72;3.08;;;;;;;19.46;32.89;97079.06;5048172;28;20078;-50
2021/03/28 11:48:54;;;;;;;4.47;2.80;;;;;;;19.80;31.79;97077.28;5050699;28;20064;-54
2021/03/28 11:51:36;;;;;;;8.52;2.80;;;;;;;19.37;31.83;97078.22;5055040;28;20104;-52
2021/03/28 11:54:14;;;;;;;5.07;2.70;;;;;;;20.30;29.08;97073.59;5045338;28;20032;-55
2021/03/28 11:56:49;;;;;;;3.13;2.50;;;;;;;19.74;31.54;97084.13;5043782;28;20025;-55
2021/03/28 11:59:18;;;;;;;3.15;2.42;;;;;;;20.29;29.16;97073.75;5045774;28;20440;-56
2021/03/28 12:01:55;;;;;;;4.10;2.38;;;;;;;19.64;30.18;97073.59;5051534;28;20036;-52
2021/03/28 12:04:30;;;;;;;4.22;2.70;;;;;;;19.68;30.04;97072.25;5049673;28;20545;-55
2021/03/28 12:07:25;;;;;;;3.10;2.67;;;;;;;19.51;32.75;97071.41;5052770;28;20476;-55
2021/03/28 12:10:00;;;;;;;5.80;3.10;;;;;;;19.03;31.36;97066.63;5047136;28;20041;-55
2021/03/28 12:12:44;;;;;;;;;;;;;;;18.56;33.01;97061.69;5052901;28;20114;-53
2021/03/28 12:15:46;;;;;;;5.60;3.55;;;;;;;18.70;32.00;97073.63;5051672;28;19948;-51
2021/03/28 12:18:21;;;;;;;4.75;3.63;;;;;;;18.59;32.47;97064.06;5046135;28;20545;-55
2021/03/28 12:21:02;;;;;;;4.93;3.10;;;;;;;18.17;34.63;97065.66;5049691;28;20040;-55
2021/03/28 12:23:48;;;;;;;9.32;3.30;;;;;;;18.47;33.24;97060.84;5047439;28;20033;-55
2021/03/28 12:26:35;;;;;;;3.38;2.67;;;;;;;19.41;30.95;97052.84;5047625;28;20150;-54
2021/03/28 12:29:40;;;;;;;7.35;3.00;;;;;;;19.14;31.94;97046.81;5050980;28;20037;-56
2021/03/28 12:32:43;;;;;;;3.95;2.55;;;;;;;19.37;31.21;97043.50;5042049;28;20086;-54
2021/03/28 12:35:21;;;;;;;5.53;3.45;;;;;;;19.70;30.02;97040.84;5046449;28;20041;-55
2021/03/28 12:37:49;;;;;;;6.00;2.90;;;;;;;19.76;29.76;97040.19;5052868;28;20638;-56
2021/03/28 12:40:29;;;;;;;4.07;3.25;;;;;;;19.85;29.00;97042.88;5053361;28;20021;-55
2021/03/28 12:42:56;;;;;;;3.38;2.95;;;;;;;19.61;29.86;97033.84;5049716;28;20113;-54
2021/03/28 12:45:25;;;;;;;3.25;2.92;;;;;;;19.51;30.18;97038.50;5050609;28;20215;-57
2021/03/28 12:47:56;;;;;;;3.92;2.90;;;;;;;19.19;31.50;97046.28;5051618;28;20052;-55
2021/03/28 12:50:35;;;;;;;4.28;3.05;;;;;;;19.75;28.79;97037.69;5048468;28;20040;-56
2021/03/28 12:53:18;;;;;;;3.22;2.72;;;;;;;18.99;31.16;97038.56;5050265;28;20021;-55
2021/03/28 12:55:47;;;;;;;4.88;3.00;;;;;;;19.76;29.65;97040.19;5054080;28;20033;-56
2021/03/28 12:58:19;;;;;;;3.35;2.88;;;;;;;19.52;29.10;97038.34;5051451;28;20060;-56
2021/03/28 13:01:10;;;;;;;3.67;3.03;;;;;;;19.30;29.94;97046.00;5050158;28;20029;-54
2021/03/28 13:03:45;;;;;;;4.57;2.88;;;;;;;19.28;29.36;97041.81;5048044;28;20629;-56